WBKK Airport Information

Runway Information
Runway 02 Length 9800 ft width 150 ft
Elevation 10 ft Threshold 1600 ft Heading 23
Runway 20 Length 9800 ft Width 150 ft
Elevation 10 ft Threshold 200 ft Heading 203
Airport Frequencies
Type A/D Name KINABALU A Frequency 119.1 MHZ
Type A/G Name KINABALU R Frequency 682.5 MHZ
Type ACC Name KINABALU C Frequency 126.1 MHZ
Type ATIS Name ATIS Frequency 127.4 MHZ
Type GND Name KINABALU G Frequency 121.6 MHZ
Type INFO Name KINABALU Frequency 133.3 MHZ
Type TWR Name KINABALU T Frequency 118.3 MHZ
Airport Navaids
Type NDB Name Kota Kinabalu Frequency 400 KHZ
Type VOR-DME Name Kota Kinabalu Frequency 113100 KHZ
Airport Weather Information & NOTAM
ADDS - METARS form results

(0315 UTC 17 April 2021)
Data provider http://aviationweather.gov/metar/data/
 
METAR text: WBKK 170300Z 28005KT 230V350 9999 FEW014 31/25 Q1012 NOSIG
Conditions at: WBKK (KOTA KINABALU IN, MY) observed 0300 UTC 17 April 2021
Temperature: 31.0°C (88°F)
Dewpoint: 25.0°C (77°F) [RH = 71%]
Pressure (altimeter): 29.88 inches Hg (1012.0 mb)
Winds: from the W (280 degrees) at 6 MPH (5 knots; 2.6 m/s)
Visibility: 6 or more miles (10+ km)
Ceiling: at least 12,000 feet AGL
Clouds: few clouds at 1400 feet AGL
Weather: no significant weather observed at this time

METAR text: WBKK 170230Z 28004KT 210V350 9999 FEW015 31/25 Q1012 NOSIG
Conditions at: WBKK (KOTA KINABALU IN, MY) observed 0230 UTC 17 April 2021
Temperature: 31.0°C (88°F)
Dewpoint: 25.0°C (77°F) [RH = 71%]
Pressure (altimeter): 29.88 inches Hg (1012.0 mb)
Winds: from the W (280 degrees) at 5 MPH (4 knots; 2.1 m/s)
Visibility: 6 or more miles (10+ km)
Ceiling: at least 12,000 feet AGL
Clouds: few clouds at 1500 feet AGL
Weather: no significant weather observed at this time

Forecast for: WBKK (KOTA KINABALU IN, MY)
Text: TAF WBKK 162300Z 1700/1800 11005KT 9999 FEW014
Forecast period: 0000 to 0200 UTC 17 April 2021
Forecast type: FROM: standard forecast or significant change
Winds: from the ESE (110 degrees) at 6 MPH (5 knots; 2.6 m/s)
Visibility: 6 or more miles (10+ km)
Ceiling: at least 12,000 feet AGL
Clouds: few clouds at 1400 feet AGL
Weather: no significant weather forecast for this period
Text: BECMG 1702/1704 30008KT
Forecast period: 0200 UTC 17 April 2021 to 0000 UTC 18 April 2021
Forecast type: BECOMING: Conditions expected to become as follows by 0400 UTC 17 April 2021
Winds: from the WNW (300 degrees) at 9 MPH (8 knots; 4.1 m/s)
Visibility: 6 or more miles (10+ km)
Ceiling: at least 12,000 feet AGL
Clouds: few clouds at 1400 feet AGL
Weather: no significant weather forecast for this period